Terminal Aerodrome Forecast
Issued by NWS Austin/San Antonio, TX

Home | Current Version | Previous Version | Text Only | Print | Product List | Glossary On
Versions: 1 2 3 4 5 6 7 8 9 10 11 12 13 14
000
FTUS44 KEWX 291314 CCA
TAFAUS
TAF COR
KAUS 291314Z 2913/3018 20011KT P6SM OVC010
      TEMPO 2913/2914 OVC009
     FM291600 19020G30KT P6SM FEW030
     FM300000 17020KT P6SM FEW250
     FM300600 18010KT P6SM OVC015
     FM300900 18008KT 4SM BR OVC009=

USA.gov is the U.S. government's official web portal to all federal, state and local government web resources and services.